sensor_id;sensor_type;location;lat;lon;timestamp;P1;durP1;ratioP1;P2;durP2;ratioP2
29958;SDS011;16815;51.100;6.516;2024-03-08T00:02:22;19.53;;;15.57;;
29958;SDS011;16815;51.100;6.516;2024-03-08T00:04:48;21.03;;;16.53;;
29958;SDS011;16815;51.100;6.516;2024-03-08T00:07:14;21.13;;;16.87;;
29958;SDS011;16815;51.100;6.516;2024-03-08T00:09:40;19.73;;;16.03;;
29958;SDS011;16815;51.100;6.516;2024-03-08T00:12:06;20.43;;;16.57;;
29958;SDS011;16815;51.100;6.516;2024-03-08T00:14:32;19.80;;;16.40;;
29958;SDS011;16815;51.100;6.516;2024-03-08T00:16:58;20.87;;;16.70;;
29958;SDS011;16815;51.100;6.516;2024-03-08T00:19:24;22.47;;;16.97;;
29958;SDS011;16815;51.100;6.516;2024-03-08T00:21:50;19.27;;;15.97;;
29958;SDS011;16815;51.100;6.516;2024-03-08T00:24:16;20.63;;;16.47;;
29958;SDS011;16815;51.100;6.516;2024-03-08T00:26:42;23.13;;;17.03;;
29958;SDS011;16815;51.100;6.516;2024-03-08T00:29:08;21.80;;;16.47;;
29958;SDS011;16815;51.100;6.516;2024-03-08T00:31:34;21.77;;;16.27;;
29958;SDS011;16815;51.100;6.516;2024-03-08T00:34:00;20.57;;;17.50;;
29958;SDS011;16815;51.100;6.516;2024-03-08T00:36:26;21.10;;;16.60;;
29958;SDS011;16815;51.100;6.516;2024-03-08T00:38:55;24.03;;;17.40;;
29958;SDS011;16815;51.100;6.516;2024-03-08T00:41:21;23.17;;;17.67;;
29958;SDS011;16815;51.100;6.516;2024-03-08T00:43:47;20.83;;;16.93;;
29958;SDS011;16815;51.100;6.516;2024-03-08T00:46:12;24.67;;;17.93;;
29958;SDS011;16815;51.100;6.516;2024-03-08T00:48:40;20.80;;;17.07;;
29958;SDS011;16815;51.100;6.516;2024-03-08T00:51:08;24.57;;;17.27;;
29958;SDS011;16815;51.100;6.516;2024-03-08T00:53:34;22.47;;;17.23;;
29958;SDS011;16815;51.100;6.516;2024-03-08T00:56:00;20.63;;;17.80;;
29958;SDS011;16815;51.100;6.516;2024-03-08T00:58:26;22.13;;;17.50;;
29958;SDS011;16815;51.100;6.516;2024-03-08T01:00:53;21.17;;;17.47;;
29958;SDS011;16815;51.100;6.516;2024-03-08T01:03:19;20.83;;;16.70;;
29958;SDS011;16815;51.100;6.516;2024-03-08T01:05:45;23.77;;;18.60;;
29958;SDS011;16815;51.100;6.516;2024-03-08T01:08:11;22.90;;;17.60;;
29958;SDS011;16815;51.100;6.516;2024-03-08T01:10:37;23.43;;;18.57;;
29958;SDS011;16815;51.100;6.516;2024-03-08T01:13:03;22.07;;;18.77;;
29958;SDS011;16815;51.100;6.516;2024-03-08T01:15:30;25.07;;;18.87;;
29958;SDS011;16815;51.100;6.516;2024-03-08T01:17:56;21.93;;;18.27;;
29958;SDS011;16815;51.100;6.516;2024-03-08T01:20:22;27.10;;;19.07;;
29958;SDS011;16815;51.100;6.516;2024-03-08T01:22:48;23.90;;;19.00;;
29958;SDS011;16815;51.100;6.516;2024-03-08T01:25:14;24.43;;;18.33;;
29958;SDS011;16815;51.100;6.516;2024-03-08T01:27:39;22.13;;;18.00;;
29958;SDS011;16815;51.100;6.516;2024-03-08T01:30:06;24.40;;;18.33;;
29958;SDS011;16815;51.100;6.516;2024-03-08T01:32:34;21.93;;;17.87;;
29958;SDS011;16815;51.100;6.516;2024-03-08T01:35:00;25.03;;;18.33;;
29958;SDS011;16815;51.100;6.516;2024-03-08T01:37:28;22.43;;;18.23;;
29958;SDS011;16815;51.100;6.516;2024-03-08T01:39:54;27.17;;;18.10;;
29958;SDS011;16815;51.100;6.516;2024-03-08T01:42:20;27.90;;;20.63;;
29958;SDS011;16815;51.100;6.516;2024-03-08T01:44:47;31.83;;;21.10;;
29958;SDS011;16815;51.100;6.516;2024-03-08T01:47:13;36.20;;;21.63;;
29958;SDS011;16815;51.100;6.516;2024-03-08T01:49:39;29.87;;;19.97;;
29958;SDS011;16815;51.100;6.516;2024-03-08T01:52:05;26.13;;;18.53;;
29958;SDS011;16815;51.100;6.516;2024-03-08T01:54:31;25.77;;;17.53;;
29958;SDS011;16815;51.100;6.516;2024-03-08T01:56:57;24.90;;;18.03;;
29958;SDS011;16815;51.100;6.516;2024-03-08T01:59:23;26.37;;;18.37;;
29958;SDS011;16815;51.100;6.516;2024-03-08T02:01:49;22.23;;;17.73;;
29958;SDS011;16815;51.100;6.516;2024-03-08T02:04:16;23.07;;;17.97;;
29958;SDS011;16815;51.100;6.516;2024-03-08T02:06:42;23.27;;;17.93;;
29958;SDS011;16815;51.100;6.516;2024-03-08T02:09:10;25.47;;;18.23;;
29958;SDS011;16815;51.100;6.516;2024-03-08T02:11:36;24.73;;;18.30;;
29958;SDS011;16815;51.100;6.516;2024-03-08T02:14:02;29.03;;;18.93;;
29958;SDS011;16815;51.100;6.516;2024-03-08T02:16:29;25.40;;;18.80;;
29958;SDS011;16815;51.100;6.516;2024-03-08T02:18:55;27.83;;;18.73;;
29958;SDS011;16815;51.100;6.516;2024-03-08T02:21:21;29.03;;;20.70;;
29958;SDS011;16815;51.100;6.516;2024-03-08T02:23:47;28.70;;;19.77;;
29958;SDS011;16815;51.100;6.516;2024-03-08T02:26:13;30.57;;;20.23;;
29958;SDS011;16815;51.100;6.516;2024-03-08T02:28:39;30.93;;;20.57;;
29958;SDS011;16815;51.100;6.516;2024-03-08T02:31:07;31.07;;;19.87;;
29958;SDS011;16815;51.100;6.516;2024-03-08T02:33:34;24.23;;;17.90;;
29958;SDS011;16815;51.100;6.516;2024-03-08T02:36:00;24.63;;;18.20;;
29958;SDS011;16815;51.100;6.516;2024-03-08T02:38:26;24.37;;;18.93;;
29958;SDS011;16815;51.100;6.516;2024-03-08T02:40:52;23.13;;;18.37;;
29958;SDS011;16815;51.100;6.516;2024-03-08T02:43:19;24.33;;;19.03;;
29958;SDS011;16815;51.100;6.516;2024-03-08T02:45:45;23.50;;;18.40;;
29958;SDS011;16815;51.100;6.516;2024-03-08T02:48:12;27.00;;;19.50;;
29958;SDS011;16815;51.100;6.516;2024-03-08T02:50:38;26.67;;;19.47;;
29958;SDS011;16815;51.100;6.516;2024-03-08T02:53:10;27.93;;;19.67;;
29958;SDS011;16815;51.100;6.516;2024-03-08T02:55:38;34.97;;;21.53;;
29958;SDS011;16815;51.100;6.516;2024-03-08T02:58:04;32.63;;;20.93;;
29958;SDS011;16815;51.100;6.516;2024-03-08T03:00:30;33.43;;;20.33;;
29958;SDS011;16815;51.100;6.516;2024-03-08T03:02:57;33.47;;;20.93;;
29958;SDS011;16815;51.100;6.516;2024-03-08T03:05:23;32.30;;;21.37;;
29958;SDS011;16815;51.100;6.516;2024-03-08T03:07:50;32.83;;;21.97;;
29958;SDS011;16815;51.100;6.516;2024-03-08T03:10:16;33.83;;;21.60;;
29958;SDS011;16815;51.100;6.516;2024-03-08T03:12:43;34.30;;;21.67;;
29958;SDS011;16815;51.100;6.516;2024-03-08T03:15:10;32.90;;;22.83;;
29958;SDS011;16815;51.100;6.516;2024-03-08T03:17:36;31.10;;;21.43;;
29958;SDS011;16815;51.100;6.516;2024-03-08T03:20:04;27.80;;;20.20;;
29958;SDS011;16815;51.100;6.516;2024-03-08T03:22:34;28.10;;;19.77;;
29958;SDS011;16815;51.100;6.516;2024-03-08T03:25:00;28.77;;;19.73;;
29958;SDS011;16815;51.100;6.516;2024-03-08T03:27:27;24.53;;;19.43;;
29958;SDS011;16815;51.100;6.516;2024-03-08T03:29:55;27.17;;;19.43;;
29958;SDS011;16815;51.100;6.516;2024-03-08T03:32:22;26.33;;;18.97;;
29958;SDS011;16815;51.100;6.516;2024-03-08T03:34:48;28.03;;;20.03;;
29958;SDS011;16815;51.100;6.516;2024-03-08T03:37:18;30.30;;;21.33;;
29958;SDS011;16815;51.100;6.516;2024-03-08T03:39:44;27.57;;;20.13;;
29958;SDS011;16815;51.100;6.516;2024-03-08T03:42:17;25.93;;;19.00;;
29958;SDS011;16815;51.100;6.516;2024-03-08T03:44:46;26.93;;;19.23;;
29958;SDS011;16815;51.100;6.516;2024-03-08T03:47:13;25.67;;;20.57;;
29958;SDS011;16815;51.100;6.516;2024-03-08T03:49:39;26.87;;;19.97;;
29958;SDS011;16815;51.100;6.516;2024-03-08T03:52:05;28.93;;;19.53;;
29958;SDS011;16815;51.100;6.516;2024-03-08T03:54:31;26.87;;;19.17;;
29958;SDS011;16815;51.100;6.516;2024-03-08T03:56:58;27.87;;;18.47;;
29958;SDS011;16815;51.100;6.516;2024-03-08T03:59:25;29.60;;;20.30;;
29958;SDS011;16815;51.100;6.516;2024-03-08T04:01:52;26.17;;;19.93;;
29958;SDS011;16815;51.100;6.516;2024-03-08T04:04:18;25.33;;;19.53;;
29958;SDS011;16815;51.100;6.516;2024-03-08T04:06:43;27.43;;;19.57;;
29958;SDS011;16815;51.100;6.516;2024-03-08T04:09:10;26.13;;;19.30;;
29958;SDS011;16815;51.100;6.516;2024-03-08T04:11:37;26.83;;;19.10;;
29958;SDS011;16815;51.100;6.516;2024-03-08T04:14:03;28.30;;;20.03;;
29958;SDS011;16815;51.100;6.516;2024-03-08T04:16:30;25.77;;;18.87;;
29958;SDS011;16815;51.100;6.516;2024-03-08T04:18:56;25.73;;;19.67;;
29958;SDS011;16815;51.100;6.516;2024-03-08T04:21:22;27.20;;;20.20;;
29958;SDS011;16815;51.100;6.516;2024-03-08T04:23:48;28.20;;;20.00;;
29958;SDS011;16815;51.100;6.516;2024-03-08T04:26:14;27.83;;;20.13;;
29958;SDS011;16815;51.100;6.516;2024-03-08T04:28:40;28.50;;;19.43;;
29958;SDS011;16815;51.100;6.516;2024-03-08T04:31:06;25.47;;;19.13;;
29958;SDS011;16815;51.100;6.516;2024-03-08T04:33:32;29.07;;;19.50;;
29958;SDS011;16815;51.100;6.516;2024-03-08T04:36:00;27.70;;;20.07;;
29958;SDS011;16815;51.100;6.516;2024-03-08T04:38:29;29.20;;;20.73;;
29958;SDS011;16815;51.100;6.516;2024-03-08T04:40:55;25.70;;;19.10;;
29958;SDS011;16815;51.100;6.516;2024-03-08T04:43:21;29.73;;;21.53;;
29958;SDS011;16815;51.100;6.516;2024-03-08T04:45:50;26.17;;;20.03;;
29958;SDS011;16815;51.100;6.516;2024-03-08T04:48:16;28.03;;;19.63;;
29958;SDS011;16815;51.100;6.516;2024-03-08T04:50:42;29.33;;;21.40;;
29958;SDS011;16815;51.100;6.516;2024-03-08T04:53:09;28.17;;;20.23;;
29958;SDS011;16815;51.100;6.516;2024-03-08T04:55:35;26.73;;;19.53;;
29958;SDS011;16815;51.100;6.516;2024-03-08T04:58:02;28.27;;;21.23;;
29958;SDS011;16815;51.100;6.516;2024-03-08T05:00:30;29.23;;;20.37;;
29958;SDS011;16815;51.100;6.516;2024-03-08T05:02:56;30.60;;;21.20;;
29958;SDS011;16815;51.100;6.516;2024-03-08T05:05:23;30.37;;;20.87;;
29958;SDS011;16815;51.100;6.516;2024-03-08T05:07:49;32.37;;;21.20;;
29958;SDS011;16815;51.100;6.516;2024-03-08T05:10:15;27.60;;;19.53;;
29958;SDS011;16815;51.100;6.516;2024-03-08T05:12:42;27.03;;;19.17;;
29958;SDS011;16815;51.100;6.516;2024-03-08T05:15:08;29.07;;;19.50;;
29958;SDS011;16815;51.100;6.516;2024-03-08T05:17:34;28.97;;;20.70;;
29958;SDS011;16815;51.100;6.516;2024-03-08T05:20:00;27.57;;;19.77;;
29958;SDS011;16815;51.100;6.516;2024-03-08T05:22:26;30.03;;;20.87;;
29958;SDS011;16815;51.100;6.516;2024-03-08T05:24:52;28.17;;;20.93;;
29958;SDS011;16815;51.100;6.516;2024-03-08T05:27:18;28.93;;;19.90;;
29958;SDS011;16815;51.100;6.516;2024-03-08T05:29:44;28.77;;;20.50;;
29958;SDS011;16815;51.100;6.516;2024-03-08T05:32:11;26.93;;;19.07;;
29958;SDS011;16815;51.100;6.516;2024-03-08T05:34:37;30.37;;;20.40;;
29958;SDS011;16815;51.100;6.516;2024-03-08T05:37:03;28.87;;;19.73;;
29958;SDS011;16815;51.100;6.516;2024-03-08T05:39:29;28.20;;;20.93;;
29958;SDS011;16815;51.100;6.516;2024-03-08T05:41:55;27.23;;;20.87;;
29958;SDS011;16815;51.100;6.516;2024-03-08T05:44:21;25.93;;;19.73;;
29958;SDS011;16815;51.100;6.516;2024-03-08T05:46:48;30.20;;;22.13;;
29958;SDS011;16815;51.100;6.516;2024-03-08T05:49:15;26.83;;;20.10;;
29958;SDS011;16815;51.100;6.516;2024-03-08T05:51:41;31.73;;;20.53;;
29958;SDS011;16815;51.100;6.516;2024-03-08T05:54:08;35.73;;;21.03;;
29958;SDS011;16815;51.100;6.516;2024-03-08T05:56:35;27.83;;;20.90;;
29958;SDS011;16815;51.100;6.516;2024-03-08T05:59:01;32.03;;;20.20;;
29958;SDS011;16815;51.100;6.516;2024-03-08T06:01:29;30.70;;;21.03;;
29958;SDS011;16815;51.100;6.516;2024-03-08T06:03:56;33.00;;;20.50;;
29958;SDS011;16815;51.100;6.516;2024-03-08T06:06:22;28.23;;;21.23;;
29958;SDS011;16815;51.100;6.516;2024-03-08T06:08:49;30.67;;;21.10;;
29958;SDS011;16815;51.100;6.516;2024-03-08T06:11:15;32.20;;;21.73;;
29958;SDS011;16815;51.100;6.516;2024-03-08T06:13:45;29.47;;;20.37;;
29958;SDS011;16815;51.100;6.516;2024-03-08T06:16:11;27.90;;;20.93;;
29958;SDS011;16815;51.100;6.516;2024-03-08T06:18:39;28.10;;;20.60;;
29958;SDS011;16815;51.100;6.516;2024-03-08T06:21:06;28.57;;;20.43;;
29958;SDS011;16815;51.100;6.516;2024-03-08T06:23:34;30.10;;;21.30;;
29958;SDS011;16815;51.100;6.516;2024-03-08T06:26:09;29.37;;;20.60;;
29958;SDS011;16815;51.100;6.516;2024-03-08T06:28:35;34.13;;;18.70;;
29958;SDS011;16815;51.100;6.516;2024-03-08T06:31:01;28.53;;;19.20;;
29958;SDS011;16815;51.100;6.516;2024-03-08T06:33:28;29.93;;;20.97;;
29958;SDS011;16815;51.100;6.516;2024-03-08T06:35:54;36.17;;;21.80;;
29958;SDS011;16815;51.100;6.516;2024-03-08T06:38:23;31.67;;;21.33;;
29958;SDS011;16815;51.100;6.516;2024-03-08T06:40:49;25.37;;;19.40;;
29958;SDS011;16815;51.100;6.516;2024-03-08T06:43:16;31.03;;;19.93;;
29958;SDS011;16815;51.100;6.516;2024-03-08T06:45:43;31.07;;;22.47;;
29958;SDS011;16815;51.100;6.516;2024-03-08T06:48:18;28.43;;;20.87;;
29958;SDS011;16815;51.100;6.516;2024-03-08T06:50:45;29.97;;;20.03;;
29958;SDS011;16815;51.100;6.516;2024-03-08T06:53:12;28.60;;;20.23;;
29958;SDS011;16815;51.100;6.516;2024-03-08T06:55:38;28.33;;;20.30;;
29958;SDS011;16815;51.100;6.516;2024-03-08T06:58:04;23.17;;;18.90;;
29958;SDS011;16815;51.100;6.516;2024-03-08T07:00:31;31.30;;;21.30;;
29958;SDS011;16815;51.100;6.516;2024-03-08T07:02:57;30.33;;;20.80;;
29958;SDS011;16815;51.100;6.516;2024-03-08T07:05:27;27.63;;;20.27;;
29958;SDS011;16815;51.100;6.516;2024-03-08T07:07:53;30.43;;;19.87;;
29958;SDS011;16815;51.100;6.516;2024-03-08T07:10:20;27.37;;;20.87;;
29958;SDS011;16815;51.100;6.516;2024-03-08T07:12:49;29.13;;;20.83;;
29958;SDS011;16815;51.100;6.516;2024-03-08T07:15:15;28.77;;;20.67;;
29958;SDS011;16815;51.100;6.516;2024-03-08T07:17:41;34.40;;;22.17;;
29958;SDS011;16815;51.100;6.516;2024-03-08T07:20:09;35.47;;;23.57;;
29958;SDS011;16815;51.100;6.516;2024-03-08T07:22:37;32.30;;;22.23;;
29958;SDS011;16815;51.100;6.516;2024-03-08T07:25:06;32.93;;;21.73;;
29958;SDS011;16815;51.100;6.516;2024-03-08T07:27:45;30.73;;;21.17;;
29958;SDS011;16815;51.100;6.516;2024-03-08T07:30:11;32.53;;;21.73;;
29958;SDS011;16815;51.100;6.516;2024-03-08T07:32:37;32.93;;;22.00;;
29958;SDS011;16815;51.100;6.516;2024-03-08T07:35:03;29.43;;;21.40;;
29958;SDS011;16815;51.100;6.516;2024-03-08T07:37:31;27.47;;;21.23;;
29958;SDS011;16815;51.100;6.516;2024-03-08T07:52:56;31.67;;;21.90;;
29958;SDS011;16815;51.100;6.516;2024-03-08T07:55:36;28.80;;;20.27;;
29958;SDS011;16815;51.100;6.516;2024-03-08T07:58:13;27.50;;;20.67;;
29958;SDS011;16815;51.100;6.516;2024-03-08T08:00:45;29.10;;;20.20;;
29958;SDS011;16815;51.100;6.516;2024-03-08T08:03:11;31.67;;;20.73;;
29958;SDS011;16815;51.100;6.516;2024-03-08T08:05:37;28.67;;;20.73;;
29958;SDS011;16815;51.100;6.516;2024-03-08T08:08:12;27.27;;;20.13;;
29958;SDS011;16815;51.100;6.516;2024-03-08T08:10:46;29.47;;;21.47;;
29958;SDS011;16815;51.100;6.516;2024-03-08T08:13:18;27.63;;;21.53;;
29958;SDS011;16815;51.100;6.516;2024-03-08T08:15:44;31.70;;;21.37;;
29958;SDS011;16815;51.100;6.516;2024-03-08T08:18:10;26.27;;;19.50;;
29958;SDS011;16815;51.100;6.516;2024-03-08T08:20:36;26.40;;;20.50;;
29958;SDS011;16815;51.100;6.516;2024-03-08T08:23:02;27.50;;;20.17;;
29958;SDS011;16815;51.100;6.516;2024-03-08T08:25:28;25.87;;;20.17;;
29958;SDS011;16815;51.100;6.516;2024-03-08T08:27:54;26.13;;;19.00;;
29958;SDS011;16815;51.100;6.516;2024-03-08T08:30:20;24.93;;;19.77;;
29958;SDS011;16815;51.100;6.516;2024-03-08T08:32:47;23.57;;;17.60;;
29958;SDS011;16815;51.100;6.516;2024-03-08T08:35:20;25.43;;;19.33;;
29958;SDS011;16815;51.100;6.516;2024-03-08T08:37:50;26.93;;;19.07;;
29958;SDS011;16815;51.100;6.516;2024-03-08T08:40:16;26.90;;;19.20;;
29958;SDS011;16815;51.100;6.516;2024-03-08T08:42:44;25.77;;;18.93;;
29958;SDS011;16815;51.100;6.516;2024-03-08T08:45:11;26.73;;;19.27;;
29958;SDS011;16815;51.100;6.516;2024-03-08T08:47:37;23.53;;;18.20;;
29958;SDS011;16815;51.100;6.516;2024-03-08T08:50:03;23.67;;;18.70;;
29958;SDS011;16815;51.100;6.516;2024-03-08T08:52:32;24.17;;;19.00;;
29958;SDS011;16815;51.100;6.516;2024-03-08T08:54:59;23.97;;;18.87;;
29958;SDS011;16815;51.100;6.516;2024-03-08T08:57:25;23.67;;;18.40;;
29958;SDS011;16815;51.100;6.516;2024-03-08T08:59:53;27.90;;;19.07;;
29958;SDS011;16815;51.100;6.516;2024-03-08T09:02:20;23.73;;;18.20;;
29958;SDS011;16815;51.100;6.516;2024-03-08T09:04:46;24.93;;;18.00;;
29958;SDS011;16815;51.100;6.516;2024-03-08T09:07:15;22.80;;;17.50;;
29958;SDS011;16815;51.100;6.516;2024-03-08T09:09:43;22.37;;;17.13;;
29958;SDS011;16815;51.100;6.516;2024-03-08T09:12:09;24.13;;;17.67;;
29958;SDS011;16815;51.100;6.516;2024-03-08T09:14:39;22.80;;;18.03;;
29958;SDS011;16815;51.100;6.516;2024-03-08T09:17:05;24.03;;;17.23;;
29958;SDS011;16815;51.100;6.516;2024-03-08T09:19:34;25.13;;;18.13;;
29958;SDS011;16815;51.100;6.516;2024-03-08T09:22:01;23.57;;;17.20;;
29958;SDS011;16815;51.100;6.516;2024-03-08T09:24:29;23.03;;;18.13;;
29958;SDS011;16815;51.100;6.516;2024-03-08T09:26:55;21.17;;;16.50;;
29958;SDS011;16815;51.100;6.516;2024-03-08T09:29:23;21.93;;;17.50;;
29958;SDS011;16815;51.100;6.516;2024-03-08T09:31:49;20.03;;;16.03;;
29958;SDS011;16815;51.100;6.516;2024-03-08T09:34:16;20.43;;;16.23;;
29958;SDS011;16815;51.100;6.516;2024-03-08T09:36:43;20.50;;;16.33;;
29958;SDS011;16815;51.100;6.516;2024-03-08T09:39:09;21.50;;;15.53;;
29958;SDS011;16815;51.100;6.516;2024-03-08T09:41:41;21.90;;;16.17;;
29958;SDS011;16815;51.100;6.516;2024-03-08T09:44:08;20.97;;;15.53;;
29958;SDS011;16815;51.100;6.516;2024-03-08T09:46:34;19.57;;;15.90;;
29958;SDS011;16815;51.100;6.516;2024-03-08T09:49:00;20.47;;;15.50;;
29958;SDS011;16815;51.100;6.516;2024-03-08T09:51:30;19.17;;;15.47;;
29958;SDS011;16815;51.100;6.516;2024-03-08T09:54:00;19.97;;;15.87;;
29958;SDS011;16815;51.100;6.516;2024-03-08T09:56:29;20.83;;;15.70;;
29958;SDS011;16815;51.100;6.516;2024-03-08T09:58:56;18.53;;;15.80;;
29958;SDS011;16815;51.100;6.516;2024-03-08T10:01:50;20.53;;;14.67;;
29958;SDS011;16815;51.100;6.516;2024-03-08T10:04:17;19.40;;;15.57;;
29958;SDS011;16815;51.100;6.516;2024-03-08T10:06:43;20.23;;;15.07;;
29958;SDS011;16815;51.100;6.516;2024-03-08T10:09:09;17.00;;;14.13;;
29958;SDS011;16815;51.100;6.516;2024-03-08T10:11:36;18.50;;;14.87;;
29958;SDS011;16815;51.100;6.516;2024-03-08T10:14:02;20.43;;;16.10;;
29958;SDS011;16815;51.100;6.516;2024-03-08T10:16:28;21.03;;;15.80;;
29958;SDS011;16815;51.100;6.516;2024-03-08T10:18:55;23.57;;;16.43;;
29958;SDS011;16815;51.100;6.516;2024-03-08T10:21:22;21.90;;;15.33;;
29958;SDS011;16815;51.100;6.516;2024-03-08T10:23:48;19.83;;;15.73;;
29958;SDS011;16815;51.100;6.516;2024-03-08T10:26:14;17.93;;;14.83;;
29958;SDS011;16815;51.100;6.516;2024-03-08T10:28:45;18.17;;;14.40;;
29958;SDS011;16815;51.100;6.516;2024-03-08T10:31:12;19.00;;;14.67;;
29958;SDS011;16815;51.100;6.516;2024-03-08T10:33:40;16.10;;;13.23;;
29958;SDS011;16815;51.100;6.516;2024-03-08T10:36:09;17.70;;;14.23;;
29958;SDS011;16815;51.100;6.516;2024-03-08T10:38:38;17.13;;;13.90;;
29958;SDS011;16815;51.100;6.516;2024-03-08T10:41:08;17.30;;;13.73;;
29958;SDS011;16815;51.100;6.516;2024-03-08T10:43:48;17.07;;;13.60;;
29958;SDS011;16815;51.100;6.516;2024-03-08T10:46:21;16.50;;;13.63;;
29958;SDS011;16815;51.100;6.516;2024-03-08T10:48:51;18.03;;;13.40;;
29958;SDS011;16815;51.100;6.516;2024-03-08T10:51:18;19.57;;;14.60;;
29958;SDS011;16815;51.100;6.516;2024-03-08T10:53:45;18.33;;;14.50;;
29958;SDS011;16815;51.100;6.516;2024-03-08T10:56:12;17.27;;;13.30;;
29958;SDS011;16815;51.100;6.516;2024-03-08T10:58:39;16.27;;;13.37;;
29958;SDS011;16815;51.100;6.516;2024-03-08T11:01:06;16.07;;;13.37;;
29958;SDS011;16815;51.100;6.516;2024-03-08T11:06:15;16.27;;;13.17;;
29958;SDS011;16815;51.100;6.516;2024-03-08T11:08:42;15.27;;;12.93;;
29958;SDS011;16815;51.100;6.516;2024-03-08T11:11:27;15.37;;;12.13;;
29958;SDS011;16815;51.100;6.516;2024-03-08T11:13:55;18.03;;;12.53;;
29958;SDS011;16815;51.100;6.516;2024-03-08T11:19:00;14.70;;;12.23;;
29958;SDS011;16815;51.100;6.516;2024-03-08T11:21:32;15.47;;;11.60;;
29958;SDS011;16815;51.100;6.516;2024-03-08T11:24:08;14.13;;;11.57;;
29958;SDS011;16815;51.100;6.516;2024-03-08T11:26:39;11.47;;;10.27;;
29958;SDS011;16815;51.100;6.516;2024-03-08T11:31:52;13.07;;;10.10;;
29958;SDS011;16815;51.100;6.516;2024-03-08T11:34:19;12.37;;;9.43;;
29958;SDS011;16815;51.100;6.516;2024-03-08T11:36:47;11.40;;;9.17;;
29958;SDS011;16815;51.100;6.516;2024-03-08T11:39:13;10.77;;;9.67;;
29958;SDS011;16815;51.100;6.516;2024-03-08T11:41:40;14.20;;;9.43;;
29958;SDS011;16815;51.100;6.516;2024-03-08T11:44:10;12.43;;;9.80;;
29958;SDS011;16815;51.100;6.516;2024-03-08T11:46:41;13.70;;;9.27;;
29958;SDS011;16815;51.100;6.516;2024-03-08T11:49:11;10.93;;;9.63;;
29958;SDS011;16815;51.100;6.516;2024-03-08T11:51:37;12.03;;;9.73;;
29958;SDS011;16815;51.100;6.516;2024-03-08T11:54:10;12.60;;;9.70;;
29958;SDS011;16815;51.100;6.516;2024-03-08T11:56:37;10.73;;;8.37;;
29958;SDS011;16815;51.100;6.516;2024-03-08T11:59:03;13.43;;;9.77;;
29958;SDS011;16815;51.100;6.516;2024-03-08T12:01:30;11.43;;;9.80;;
29958;SDS011;16815;51.100;6.516;2024-03-08T12:03:59;11.27;;;9.60;;
29958;SDS011;16815;51.100;6.516;2024-03-08T12:06:27;12.70;;;9.63;;
29958;SDS011;16815;51.100;6.516;2024-03-08T12:09:04;11.20;;;9.50;;
29958;SDS011;16815;51.100;6.516;2024-03-08T12:11:30;11.77;;;9.80;;
29958;SDS011;16815;51.100;6.516;2024-03-08T12:13:56;13.83;;;10.93;;
29958;SDS011;16815;51.100;6.516;2024-03-08T12:16:23;11.73;;;9.47;;
29958;SDS011;16815;51.100;6.516;2024-03-08T12:18:50;12.00;;;9.43;;
29958;SDS011;16815;51.100;6.516;2024-03-08T12:21:17;11.97;;;9.50;;
29958;SDS011;16815;51.100;6.516;2024-03-08T12:23:45;11.33;;;9.57;;
29958;SDS011;16815;51.100;6.516;2024-03-08T12:26:16;11.57;;;9.83;;
29958;SDS011;16815;51.100;6.516;2024-03-08T12:28:42;12.43;;;10.43;;
29958;SDS011;16815;51.100;6.516;2024-03-08T12:31:17;12.23;;;9.57;;
29958;SDS011;16815;51.100;6.516;2024-03-08T12:36:14;12.83;;;9.90;;
29958;SDS011;16815;51.100;6.516;2024-03-08T12:38:43;11.73;;;9.53;;
29958;SDS011;16815;51.100;6.516;2024-03-08T12:41:13;11.17;;;9.10;;
29958;SDS011;16815;51.100;6.516;2024-03-08T12:43:39;12.23;;;10.57;;
29958;SDS011;16815;51.100;6.516;2024-03-08T12:46:05;11.20;;;9.43;;
29958;SDS011;16815;51.100;6.516;2024-03-08T12:48:34;12.40;;;9.63;;
29958;SDS011;16815;51.100;6.516;2024-03-08T12:51:01;14.10;;;9.20;;
29958;SDS011;16815;51.100;6.516;2024-03-08T12:53:27;10.03;;;8.93;;
29958;SDS011;16815;51.100;6.516;2024-03-08T12:55:56;12.87;;;9.50;;
29958;SDS011;16815;51.100;6.516;2024-03-08T12:58:22;10.60;;;9.03;;
29958;SDS011;16815;51.100;6.516;2024-03-08T13:00:48;11.27;;;9.57;;
29958;SDS011;16815;51.100;6.516;2024-03-08T13:03:14;12.93;;;10.53;;
29958;SDS011;16815;51.100;6.516;2024-03-08T13:05:41;13.20;;;10.17;;
29958;SDS011;16815;51.100;6.516;2024-03-08T13:08:08;13.60;;;9.70;;
29958;SDS011;16815;51.100;6.516;2024-03-08T13:10:41;13.80;;;9.67;;
29958;SDS011;16815;51.100;6.516;2024-03-08T13:13:08;11.17;;;9.93;;
29958;SDS011;16815;51.100;6.516;2024-03-08T13:15:34;10.40;;;8.60;;
29958;SDS011;16815;51.100;6.516;2024-03-08T13:18:01;12.63;;;9.17;;
29958;SDS011;16815;51.100;6.516;2024-03-08T13:20:28;10.87;;;9.27;;
29958;SDS011;16815;51.100;6.516;2024-03-08T13:22:55;9.57;;;8.60;;
29958;SDS011;16815;51.100;6.516;2024-03-08T13:25:21;11.37;;;9.50;;
29958;SDS011;16815;51.100;6.516;2024-03-08T13:27:48;10.17;;;9.07;;
29958;SDS011;16815;51.100;6.516;2024-03-08T13:30:14;11.93;;;9.80;;
29958;SDS011;16815;51.100;6.516;2024-03-08T13:32:43;10.23;;;9.13;;
29958;SDS011;16815;51.100;6.516;2024-03-08T13:35:09;12.20;;;10.17;;
29958;SDS011;16815;51.100;6.516;2024-03-08T13:37:42;10.77;;;9.57;;
29958;SDS011;16815;51.100;6.516;2024-03-08T13:40:08;10.90;;;9.70;;
29958;SDS011;16815;51.100;6.516;2024-03-08T13:42:41;11.87;;;9.60;;
29958;SDS011;16815;51.100;6.516;2024-03-08T13:45:08;11.87;;;9.97;;
29958;SDS011;16815;51.100;6.516;2024-03-08T13:47:41;14.27;;;9.40;;
29958;SDS011;16815;51.100;6.516;2024-03-08T13:50:08;9.17;;;8.23;;
29958;SDS011;16815;51.100;6.516;2024-03-08T13:52:38;9.97;;;8.83;;
29958;SDS011;16815;51.100;6.516;2024-03-08T13:55:04;11.60;;;9.10;;
29958;SDS011;16815;51.100;6.516;2024-03-08T13:57:31;10.10;;;8.90;;
29958;SDS011;16815;51.100;6.516;2024-03-08T13:59:57;10.37;;;8.80;;
29958;SDS011;16815;51.100;6.516;2024-03-08T14:02:23;11.10;;;8.53;;
29958;SDS011;16815;51.100;6.516;2024-03-08T14:04:53;10.87;;;9.27;;
29958;SDS011;16815;51.100;6.516;2024-03-08T14:07:19;11.47;;;8.70;;
29958;SDS011;16815;51.100;6.516;2024-03-08T14:09:45;11.23;;;9.23;;
29958;SDS011;16815;51.100;6.516;2024-03-08T14:12:11;10.57;;;8.80;;
29958;SDS011;16815;51.100;6.516;2024-03-08T14:14:38;13.47;;;8.93;;
29958;SDS011;16815;51.100;6.516;2024-03-08T14:17:07;11.87;;;8.97;;
29958;SDS011;16815;51.100;6.516;2024-03-08T14:19:35;11.47;;;9.03;;
29958;SDS011;16815;51.100;6.516;2024-03-08T14:22:01;12.60;;;9.33;;
29958;SDS011;16815;51.100;6.516;2024-03-08T14:24:29;11.17;;;8.33;;
29958;SDS011;16815;51.100;6.516;2024-03-08T14:26:56;11.53;;;9.07;;
29958;SDS011;16815;51.100;6.516;2024-03-08T14:29:25;13.93;;;8.97;;
29958;SDS011;16815;51.100;6.516;2024-03-08T14:31:54;10.60;;;9.07;;
29958;SDS011;16815;51.100;6.516;2024-03-08T14:34:23;10.23;;;8.90;;
29958;SDS011;16815;51.100;6.516;2024-03-08T14:36:54;11.13;;;8.57;;
29958;SDS011;16815;51.100;6.516;2024-03-08T14:39:20;11.47;;;8.20;;
29958;SDS011;16815;51.100;6.516;2024-03-08T14:41:47;9.67;;;8.23;;
29958;SDS011;16815;51.100;6.516;2024-03-08T14:44:13;9.77;;;8.00;;
29958;SDS011;16815;51.100;6.516;2024-03-08T14:46:40;13.63;;;8.63;;
29958;SDS011;16815;51.100;6.516;2024-03-08T14:49:08;9.60;;;7.80;;